Time;durP1;ratioP1;P1;durP2;ratioP2;P2;SDS_P1;SDS_P2;PMS_P1;PMS_P2;Temp;Humidity;BMP_temperature;BMP_pressure;BME280_temperature;BME280_humidity;BME280_pressure;Samples;Min_cycle;Max_cycle;Signal;HPM_P1;HPM_P2
2022/04/19 00:00:44;;;;;;;7.60;5.07;;;;;;;12.27;46.75;98295.13;5091840;28;20035;-49
2022/04/19 00:03:11;;;;;;;4.65;3.10;;;;;;;12.21;47.12;98288.91;5090516;28;20027;-49
2022/04/19 00:05:38;;;;;;;6.57;3.40;;;;;;;12.13;47.46;98282.13;5090388;28;20124;-48
2022/04/19 00:08:06;;;;;;;6.88;3.45;;;;;;;12.05;47.27;98286.88;5091815;28;20025;-51
2022/04/19 00:10:33;;;;;;;10.38;8.90;;;;;;;11.90;48.00;98284.59;5090414;28;20036;-48
2022/04/19 00:13:00;;;;;;;14.35;7.10;;;;;;;11.86;48.45;98283.41;5090402;28;20021;-49
2022/04/19 00:15:28;;;;;;;5.95;3.10;;;;;;;11.90;48.07;98284.59;5090410;28;20035;-51
2022/04/19 00:17:59;;;;;;;6.47;3.13;;;;;;;11.80;48.37;98285.88;5091681;28;20505;-49
2022/04/19 00:20:25;;;;;;;60.92;39.55;;;;;;;11.85;48.50;98285.25;5091677;28;20508;-48
2022/04/19 00:22:52;;;;;;;18.92;16.17;;;;;;;11.88;48.46;98287.41;5091673;28;20501;-50
2022/04/19 00:25:18;;;;;;;116.70;81.10;;;;;;;11.81;48.39;98286.66;5091517;28;20029;-50
2022/04/19 00:27:44;;;;;;;42.60;33.72;;;;;;;11.78;48.94;98280.03;5091621;28;20020;-49
2022/04/19 00:30:11;;;;;;;60.38;41.33;;;;;;;11.72;48.72;98283.53;5091533;28;20089;-50
2022/04/19 00:32:37;;;;;;;18.17;13.82;;;;;;;11.68;48.89;98278.94;5091590;28;20020;-50
2022/04/19 00:35:04;;;;;;;7.82;5.05;;;;;;;11.74;48.52;98270.19;5089913;28;20098;-50
2022/04/19 00:37:30;;;;;;;8.75;4.20;;;;;;;11.66;48.55;98273.09;5091521;28;20097;-50
2022/04/19 00:39:58;;;;;;;5.75;3.88;;;;;;;11.54;48.94;98268.53;5091507;28;20020;-50
2022/04/19 00:42:30;;;;;;;6.88;4.20;;;;;;;11.53;49.33;98269.56;5091525;28;20432;-50
2022/04/19 00:44:57;;;;;;;6.90;4.18;;;;;;;11.51;49.01;98270.78;5091445;28;20024;-50
2022/04/19 00:47:23;;;;;;;7.22;3.38;;;;;;;11.50;49.13;98269.19;5091417;28;20027;-49
2022/04/19 00:49:49;;;;;;;8.75;4.93;;;;;;;11.57;49.80;98270.75;5091476;28;20024;-50
2022/04/19 00:52:15;;;;;;;5.85;2.97;;;;;;;11.78;49.10;98272.16;5091297;28;20043;-49
2022/04/19 00:54:44;;;;;;;8.18;6.68;;;;;;;11.94;48.67;98265.53;5093773;28;20032;-49
2022/04/19 00:57:11;;;;;;;5.95;2.97;;;;;;;12.05;48.29;98269.25;5093810;28;20020;-50
2022/04/19 00:59:37;;;;;;;9.88;5.15;;;;;;;11.99;48.22;98263.06;5095152;28;20020;-51
2022/04/19 01:02:03;;;;;;;38.00;25.67;;;;;;;11.96;48.29;98263.50;5094963;28;20016;-50
2022/04/19 01:04:29;;;;;;;15.18;6.85;;;;;;;12.03;48.18;98270.50;5093687;28;20024;-50
2022/04/19 01:06:56;;;;;;;6.95;2.80;;;;;;;11.97;48.32;98269.53;5094767;28;20025;-50
2022/04/19 01:09:23;;;;;;;5.25;3.38;;;;;;;11.95;48.42;98267.16;5094904;28;20485;-49
2022/04/19 01:14:36;;;;;;;8.75;5.93;;;;;;;11.92;48.62;98264.16;5094818;28;20039;-50
2022/04/19 01:17:03;;;;;;;11.90;10.70;;;;;;;11.87;48.62;98269.22;5093440;28;20142;-50
2022/04/19 01:19:31;;;;;;;6.50;3.13;;;;;;;11.74;48.61;98260.47;5093393;28;20024;-51
2022/04/19 01:21:57;;;;;;;10.40;4.43;;;;;;;11.58;49.27;98259.19;5093532;28;20024;-50
2022/04/19 01:24:24;;;;;;;10.32;3.85;;;;;;;11.45;49.68;98255.88;5093294;28;20512;-50
2022/04/19 01:26:54;;;;;;;6.90;3.47;;;;;;;11.29;49.92;98262.50;5093163;28;20020;-49
2022/04/19 01:29:20;;;;;;;5.38;3.55;;;;;;;11.11;50.41;98261.44;5093306;28;20023;-49
2022/04/19 01:31:46;;;;;;;6.13;4.03;;;;;;;11.20;50.37;98262.75;5094455;28;20112;-50
2022/04/19 01:34:12;;;;;;;9.32;7.10;;;;;;;11.26;50.55;98258.47;5094418;28;20088;-49
2022/04/19 01:36:39;;;;;;;10.75;4.78;;;;;;;11.24;50.38;98257.88;5092829;28;20035;-49
2022/04/19 01:39:09;;;;;;;13.30;6.55;;;;;;;11.37;50.34;98259.63;5094355;28;20089;-48
2022/04/19 01:41:37;;;;;;;6.38;2.80;;;;;;;11.64;49.76;98260.16;5094343;28;20073;-49
2022/04/19 01:44:07;;;;;;;8.93;4.80;;;;;;;11.62;49.86;98259.56;5092918;28;20509;-50
2022/04/19 01:46:33;;;;;;;8.48;5.82;;;;;;;11.62;49.15;98264.03;5094108;28;20085;-49
2022/04/19 01:49:01;;;;;;;6.85;4.85;;;;;;;11.48;49.76;98258.91;5094130;28;20027;-50
2022/04/19 01:51:27;;;;;;;20.13;9.23;;;;;;;11.42;49.98;98266.84;5092772;28;20031;-49
2022/04/19 01:53:54;;;;;;;10.07;4.55;;;;;;;11.36;50.07;98271.94;5092738;28;20028;-50
2022/04/19 01:56:20;;;;;;;8.00;3.08;;;;;;;11.36;49.93;98281.63;5093992;28;20039;-49
2022/04/19 01:58:45;;;;;;;5.18;2.70;;;;;;;11.29;49.95;98279.06;5093915;28;20460;-49
2022/04/19 02:01:11;;;;;;;3.95;2.50;;;;;;;11.28;50.25;98274.81;5093988;28;20107;-49
2022/04/19 02:03:37;;;;;;;5.30;2.40;;;;;;;11.29;50.28;98276.44;5093901;28;20413;-49
2022/04/19 02:06:11;;;;;;;7.70;3.17;;;;;;;11.35;50.40;98280.03;5092914;28;20056;-50
2022/04/19 02:08:38;;;;;;;7.05;4.78;;;;;;;11.46;49.92;98279.31;5093824;28;20026;-49
2022/04/19 02:11:04;;;;;;;11.77;4.10;;;;;;;11.50;49.79;98274.44;5093712;28;20489;-49
2022/04/19 02:13:31;;;;;;;6.40;2.65;;;;;;;11.54;49.70;98271.16;5093652;28;20061;-50
2022/04/19 02:15:58;;;;;;;9.68;5.70;;;;;;;11.45;49.95;98272.47;5093621;28;20032;-49
2022/04/19 02:18:25;;;;;;;5.93;2.78;;;;;;;11.48;49.79;98264.16;5093618;28;20044;-50
2022/04/19 02:20:51;;;;;;;14.20;5.80;;;;;;;11.37;50.25;98270.91;5093519;28;20031;-51
2022/04/19 02:23:17;;;;;;;7.82;5.25;;;;;;;11.40;50.07;98267.06;5092157;28;20085;-49
2022/04/19 02:25:43;;;;;;;4.25;2.45;;;;;;;11.32;50.01;98268.13;5093317;28;20060;-50
2022/04/19 02:28:10;;;;;;;8.27;2.63;;;;;;;11.20;50.53;98264.59;5092118;28;20035;-49
2022/04/19 02:30:36;;;;;;;5.70;2.65;;;;;;;10.97;51.12;98263.34;5093335;28;20027;-51
2022/04/19 02:33:02;;;;;;;5.78;3.28;;;;;;;10.99;51.18;98263.16;5093238;28;20051;-49
2022/04/19 02:35:31;;;;;;;4.15;2.60;;;;;;;11.03;51.19;98258.25;5091682;28;20132;-49
2022/04/19 02:37:59;;;;;;;16.23;11.23;;;;;;;10.93;51.52;98256.13;5093253;28;20024;-49
2022/04/19 02:40:26;;;;;;;6.53;3.65;;;;;;;10.80;51.87;98259.63;5091782;28;20115;-49
2022/04/19 02:42:55;;;;;;;4.82;2.88;;;;;;;10.67;51.87;98270.22;5093089;28;20016;-50
2022/04/19 02:45:22;;;;;;;12.63;4.05;;;;;;;10.68;52.13;98259.50;5092922;28;20016;-49
2022/04/19 02:48:08;;;;;;;5.35;2.83;;;;;;;10.75;52.47;98262.09;5092993;28;20077;-50
2022/04/19 02:50:41;;;;;;;8.35;2.95;;;;;;;10.77;51.93;98266.13;5092795;28;20028;-49
2022/04/19 02:53:07;;;;;;;4.32;3.03;;;;;;;10.53;52.28;98272.13;5091661;28;20032;-49
2022/04/19 02:55:33;;;;;;;12.45;5.40;;;;;;;10.19;52.67;98266.97;5092866;28;20016;-50
2022/04/19 02:57:58;;;;;;;5.20;2.80;;;;;;;9.90;53.74;98275.34;5092784;28;20468;-50
2022/04/19 03:00:24;;;;;;;5.15;3.35;;;;;;;9.75;54.15;98279.00;5092910;28;20069;-50
2022/04/19 03:02:51;;;;;;;7.03;2.70;;;;;;;9.54;55.06;98276.66;5092746;28;20028;-49
2022/04/19 03:05:18;;;;;;;6.28;3.30;;;;;;;9.36;55.44;98270.19;5091287;28;20028;-50
2022/04/19 03:07:45;;;;;;;5.25;3.08;;;;;;;9.19;56.70;98274.22;5091324;28;20402;-49
2022/04/19 03:10:11;;;;;;;5.82;3.42;;;;;;;9.05;56.29;98283.09;5092611;28;20028;-50
2022/04/19 03:12:36;;;;;;;10.80;8.23;;;;;;;8.98;56.68;98277.84;5091296;28;20031;-50
2022/04/19 03:15:02;;;;;;;6.40;3.65;;;;;;;8.93;56.93;98280.25;5092497;28;20017;-49
2022/04/19 03:17:28;;;;;;;5.22;3.10;;;;;;;8.92;57.87;98278.66;5092504;28;20024;-49
2022/04/19 03:19:54;;;;;;;4.65;3.63;;;;;;;8.98;57.48;98283.09;5092528;28;20020;-50
2022/04/19 03:22:20;;;;;;;5.72;3.17;;;;;;;9.19;57.40;98277.66;5091124;28;20032;-49
2022/04/19 03:27:42;;;;;;;8.40;5.95;;;;;;;9.33;57.22;98272.41;5092348;28;20409;-50
2022/04/19 03:30:14;;;;;;;10.80;5.82;;;;;;;9.42;56.78;98262.53;5092317;28;20062;-49
2022/04/19 03:32:43;;;;;;;8.63;5.18;;;;;;;9.48;56.80;98269.59;5092238;28;20028;-49
2022/04/19 03:35:10;;;;;;;10.20;5.00;;;;;;;9.68;56.77;98272.16;5091796;28;20056;-50
2022/04/19 03:37:39;;;;;;;11.20;5.85;;;;;;;9.92;56.04;98274.16;5092177;28;20081;-49
2022/04/19 03:40:06;;;;;;;9.40;3.70;;;;;;;10.08;55.48;98267.66;5090774;28;20024;-50
2022/04/19 03:42:33;;;;;;;8.93;3.92;;;;;;;10.23;55.09;98259.50;5092091;28;20028;-50
2022/04/19 03:44:59;;;;;;;5.72;2.88;;;;;;;10.26;54.50;98258.28;5092113;28;20020;-49
2022/04/19 03:47:24;;;;;;;17.88;7.40;;;;;;;10.20;54.75;98260.72;5090614;28;20509;-50
2022/04/19 03:49:50;;;;;;;6.90;3.25;;;;;;;10.17;54.44;98263.75;5092003;28;20125;-50
2022/04/19 03:52:16;;;;;;;6.43;2.80;;;;;;;10.16;54.25;98256.09;5090636;28;20053;-49
2022/04/19 03:54:42;;;;;;;4.60;2.83;;;;;;;10.05;54.40;98262.81;5091945;28;20016;-49
2022/04/19 03:57:09;;;;;;;4.50;3.17;;;;;;;9.91;55.07;98261.25;5090590;28;20028;-49
2022/04/19 03:59:41;;;;;;;4.97;2.95;;;;;;;9.71;55.31;98266.53;5091909;28;20173;-49
2022/04/19 04:02:07;;;;;;;7.80;6.05;;;;;;;9.52;56.07;98268.97;5091975;28;20026;-50
2022/04/19 04:04:35;;;;;;;6.45;3.95;;;;;;;9.52;56.63;98268.19;5091896;28;20036;-49
2022/04/19 04:07:05;;;;;;;6.72;3.63;;;;;;;9.62;55.82;98260.72;5091776;28;20026;-49
2022/04/19 04:09:32;;;;;;;7.43;2.97;;;;;;;9.57;56.10;98255.25;5090554;28;20031;-49
2022/04/19 04:12:11;;;;;;;5.88;3.25;;;;;;;9.43;56.69;98256.28;5090459;28;20016;-50
2022/04/19 04:14:37;;;;;;;7.88;4.20;;;;;;;9.38;56.51;98260.31;5091787;28;20059;-50
2022/04/19 04:17:03;;;;;;;14.77;3.45;;;;;;;9.34;56.44;98253.09;5091739;28;20110;-50
2022/04/19 04:19:29;;;;;;;7.00;3.08;;;;;;;9.41;56.81;98256.50;5090455;28;20516;-50
2022/04/19 04:21:55;;;;;;;5.38;3.13;;;;;;;9.45;56.45;98255.06;5090398;28;20590;-50
2022/04/19 04:24:21;;;;;;;9.75;3.45;;;;;;;9.39;56.47;98255.88;5091678;28;20505;-50
2022/04/19 04:26:47;;;;;;;5.28;3.20;;;;;;;9.45;56.52;98264.75;5091590;28;20016;-49
2022/04/19 04:29:13;;;;;;;7.28;2.70;;;;;;;9.43;56.85;98258.91;5093370;28;20450;-50
2022/04/19 04:31:39;;;;;;;8.20;3.35;;;;;;;9.34;56.33;98264.34;5095618;28;20027;-50
2022/04/19 04:34:06;;;;;;;6.65;5.65;;;;;;;9.11;57.10;98264.75;5094316;28;20125;-49
2022/04/19 04:36:32;;;;;;;13.13;4.63;;;;;;;8.98;57.78;98268.19;5095097;28;20060;-50
2022/04/19 04:38:58;;;;;;;4.22;2.80;;;;;;;8.92;57.57;98268.97;5094182;28;20039;-49
2022/04/19 04:41:23;;;;;;;9.60;5.38;;;;;;;8.93;57.69;98269.78;5095442;28;20071;-49
2022/04/19 04:43:49;;;;;;;8.45;3.25;;;;;;;8.99;58.52;98263.75;5095421;28;20028;-49
2022/04/19 04:51:43;;;;;;;6.30;2.53;;;;;;;9.19;57.87;98275.06;5095278;28;20039;-50
2022/04/19 04:54:09;;;;;;;5.97;2.90;;;;;;;9.16;57.61;98272.81;5095284;28;20489;-49
2022/04/19 04:56:34;;;;;;;8.65;3.63;;;;;;;9.24;57.59;98271.03;5095120;28;20051;-49
2022/04/19 04:59:00;;;;;;;9.15;4.80;;;;;;;9.28;57.11;98277.47;5095084;28;20410;-50
2022/04/19 05:01:26;;;;;;;8.45;2.97;;;;;;;9.29;57.32;98273.81;5093772;28;20024;-50
2022/04/19 05:03:52;;;;;;;7.03;3.67;;;;;;;9.57;57.14;98277.03;5095009;28;20024;-49
2022/04/19 05:06:17;;;;;;;9.15;2.80;;;;;;;9.90;56.02;98285.81;5094927;28;20486;-50
2022/04/19 05:08:43;;;;;;;5.10;3.00;;;;;;;10.05;55.94;98289.00;5093667;28;20525;-48
2022/04/19 05:11:09;;;;;;;6.10;3.40;;;;;;;10.52;54.81;98280.97;5094931;28;20103;-49
2022/04/19 05:13:35;;;;;;;12.38;3.22;;;;;;;11.04;53.17;98270.38;5093464;28;20030;-49
2022/04/19 05:16:01;;;;;;;8.95;2.50;;;;;;;11.31;52.13;98263.91;5094822;28;20028;-49
2022/04/19 05:18:27;;;;;;;5.55;2.90;;;;;;;11.58;51.36;98271.53;5094751;28;20501;-49
2022/04/19 05:20:53;;;;;;;7.82;4.00;;;;;;;11.68;51.08;98263.97;5094704;28;20023;-48
2022/04/19 05:23:20;;;;;;;6.50;3.13;;;;;;;11.91;50.23;98266.00;5093378;28;20113;-49
2022/04/19 05:25:46;;;;;;;14.55;6.75;;;;;;;12.04;50.10;98269.50;5094543;28;20401;-49
2022/04/19 05:28:13;;;;;;;10.88;4.13;;;;;;;12.01;49.97;98270.72;5093256;28;20028;-49
2022/04/19 05:30:38;;;;;;;8.77;3.55;;;;;;;12.10;49.40;98272.03;5094517;28;20443;-49
2022/04/19 05:33:05;;;;;;;4.65;3.50;;;;;;;11.98;49.61;98277.22;5094517;28;20474;-49
2022/04/19 05:35:31;;;;;;;8.70;3.70;;;;;;;11.92;49.76;98279.94;5094160;28;20048;-49
2022/04/19 05:37:58;;;;;;;5.28;4.38;;;;;;;11.88;49.69;98282.16;5094435;28;20095;-50
2022/04/19 05:40:24;;;;;;;7.93;4.70;;;;;;;11.65;50.11;98288.06;5093074;28;20028;-50
2022/04/19 05:42:50;;;;;;;41.25;34.63;;;;;;;11.69;50.41;98288.41;5094265;28;20405;-49
2022/04/19 05:45:17;;;;;;;12.05;8.52;;;;;;;12.06;49.87;98286.66;5094205;28;20398;-49
2022/04/19 05:47:43;;;;;;;11.43;6.38;;;;;;;12.48;49.60;98294.66;5092813;28;20028;-49
2022/04/19 05:50:09;;;;;;;9.55;4.03;;;;;;;12.75;47.93;98294.28;5092820;28;20024;-51
2022/04/19 05:52:36;;;;;;;7.03;4.15;;;;;;;12.62;48.52;98295.28;5094341;28;20020;-49
2022/04/19 05:55:02;;;;;;;6.75;3.80;;;;;;;12.73;48.21;98294.50;5094068;28;20020;-50
2022/04/19 05:57:28;;;;;;;12.07;4.63;;;;;;;13.21;47.79;98295.44;5092722;28;20052;-50
2022/04/19 05:59:53;;;;;;;18.00;5.25;;;;;;;13.89;47.02;98293.31;5092661;28;20472;-49
2022/04/19 06:05:04;;;;;;;7.88;4.20;;;;;;;15.30;43.25;98292.00;5094191;28;20186;-49
2022/04/19 06:07:31;;;;;;;19.20;4.63;;;;;;;15.73;42.37;98287.88;5093743;28;20055;-49
2022/04/19 06:09:57;;;;;;;7.70;3.50;;;;;;;16.14;41.24;98291.09;5093840;28;20394;-49
2022/04/19 06:12:24;;;;;;;9.00;3.75;;;;;;;16.65;40.44;98280.25;5092386;28;20024;-50
2022/04/19 06:14:49;;;;;;;10.18;4.07;;;;;;;17.03;40.33;98283.84;5092358;28;20028;-49
2022/04/19 06:17:21;;;;;;;12.52;4.20;;;;;;;17.21;39.39;98278.16;5092269;28;20081;-50
2022/04/19 06:19:47;;;;;;;13.32;3.65;;;;;;;17.61;37.98;98282.16;5093618;28;20408;-50
2022/04/19 06:22:13;;;;;;;11.15;3.90;;;;;;;17.47;37.40;98289.75;5093566;28;20028;-50
2022/04/19 06:24:39;;;;;;;10.65;4.85;;;;;;;17.64;37.49;98286.13;5093505;28;20031;-50
2022/04/19 06:27:05;;;;;;;12.07;4.00;;;;;;;18.22;36.72;98287.00;5092014;28;20024;-50
2022/04/19 06:29:30;;;;;;;11.07;4.28;;;;;;;18.67;36.20;98285.53;5093387;28;20043;-51
2022/04/19 06:31:56;;;;;;;13.48;6.03;;;;;;;19.20;36.31;98285.34;5093385;28;20081;-50
2022/04/19 06:34:22;;;;;;;11.75;4.35;;;;;;;19.79;34.19;98280.50;5091980;28;20504;-51
2022/04/19 06:36:47;;;;;;;17.83;4.25;;;;;;;20.28;33.65;98291.28;5093078;28;20509;-50
2022/04/19 06:39:13;;;;;;;18.10;6.40;;;;;;;20.50;32.83;98288.25;5093217;28;20020;-50
2022/04/19 06:41:40;;;;;;;9.95;5.03;;;;;;;20.93;32.44;98285.06;5091798;28;20055;-50
2022/04/19 06:44:06;;;;;;;18.63;4.68;;;;;;;21.35;31.37;98289.00;5091838;28;20020;-51
2022/04/19 06:46:32;;;;;;;19.08;4.88;;;;;;;21.48;31.41;98287.56;5092938;28;20034;-51
2022/04/19 06:48:58;;;;;;;29.88;6.75;;;;;;;21.66;31.22;98280.72;5091689;28;20016;-50
2022/04/19 06:51:28;;;;;;;16.90;4.50;;;;;;;22.57;30.39;98283.41;5092619;28;20027;-50
2022/04/19 06:53:53;;;;;;;15.32;4.18;;;;;;;23.10;29.33;98274.34;5092946;28;20020;-51
2022/04/19 06:56:19;;;;;;;13.45;4.22;;;;;;;23.45;28.86;98274.84;5092861;28;20028;-51
2022/04/19 06:58:45;;;;;;;70.25;7.07;;;;;;;23.93;28.57;98274.53;5092817;28;20505;-50
2022/04/19 07:01:11;;;;;;;24.83;4.00;;;;;;;24.22;28.09;98271.50;5091646;28;20051;-50
2022/04/19 07:03:39;;;;;;;22.13;4.72;;;;;;;24.63;27.86;98269.88;5092737;28;20020;-51
2022/04/19 07:06:08;;;;;;;14.82;4.72;;;;;;;25.67;26.76;98267.88;5092663;28;20028;-51
2022/04/19 07:08:34;;;;;;;28.23;4.43;;;;;;;26.79;24.72;98271.16;5091282;28;20080;-51
2022/04/19 07:11:03;;;;;;;23.27;4.03;;;;;;;28.12;22.62;98265.88;5092590;28;20024;-50
2022/04/19 07:13:29;;;;;;;84.10;10.57;;;;;;;29.13;21.68;98261.50;5092551;28;20024;-51
2022/04/19 07:15:55;;;;;;;28.08;4.53;;;;;;;29.74;21.17;98261.63;5092572;28;20032;-51
2022/04/19 07:18:24;;;;;;;51.33;8.93;;;;;;;29.80;20.93;98259.47;5092486;28;20027;-50
2022/04/19 07:26:37;;;;;;;22.23;3.95;;;;;;;30.85;18.75;98256.81;5092610;28;20112;-51
2022/04/19 07:29:04;;;;;;;10.32;2.83;;;;;;;31.43;17.83;98245.56;5092400;28;20484;-50
2022/04/19 07:31:31;;;;;;;10.57;3.00;;;;;;;31.63;17.69;98245.66;5092479;28;20114;-51
2022/04/19 07:33:57;;;;;;;11.27;3.08;;;;;;;31.93;17.24;98243.25;5092502;28;20032;-51
2022/04/19 07:36:23;;;;;;;9.30;2.85;;;;;;;32.11;17.03;98248.34;5091921;28;20445;-51
2022/04/19 07:38:49;;;;;;;8.05;2.67;;;;;;;30.92;17.40;98247.31;5092205;28;20028;-51
2022/04/19 07:41:17;;;;;;;9.00;2.40;;;;;;;30.48;17.82;98249.94;5092149;28;20024;-51
2022/04/19 07:43:47;;;;;;;13.65;3.10;;;;;;;29.71;18.69;98245.25;5090827;28;20107;-51
2022/04/19 07:46:16;;;;;;;7.32;3.10;;;;;;;29.54;18.51;98249.75;5091949;28;20036;-51
2022/04/19 07:48:47;;;;;;;17.58;4.32;;;;;;;30.24;18.32;98251.53;5091061;28;20385;-51
2022/04/19 07:51:14;;;;;;;6.95;2.53;;;;;;;30.65;17.59;98246.97;5091965;28;20036;-50
2022/04/19 07:53:40;;;;;;;8.85;2.95;;;;;;;31.34;17.13;98242.22;5092032;28;20028;-50
2022/04/19 07:56:07;;;;;;;7.70;2.83;;;;;;;31.80;16.77;98237.16;5091936;28;20099;-51
2022/04/19 07:58:32;;;;;;;11.07;3.05;;;;;;;31.95;16.68;98238.25;5090681;28;20020;-50
2022/04/19 08:00:59;;;;;;;19.00;3.25;;;;;;;31.98;16.64;98236.78;5091924;28;20028;-50
2022/04/19 08:03:25;;;;;;;13.35;2.78;;;;;;;32.58;16.59;98236.56;5089851;28;20092;-52
2022/04/19 08:05:52;;;;;;;13.07;3.60;;;;;;;32.51;16.49;98239.09;5090423;28;20031;-51
2022/04/19 08:08:19;;;;;;;11.35;2.92;;;;;;;31.94;16.99;98227.78;5090639;28;20020;-51
2022/04/19 08:10:45;;;;;;;14.90;3.40;;;;;;;31.03;17.24;98232.16;5091879;28;20024;-51
2022/04/19 08:13:10;;;;;;;12.18;2.90;;;;;;;31.26;17.44;98235.81;5091844;28;20021;-51
2022/04/19 08:15:36;;;;;;;10.27;2.90;;;;;;;32.15;16.56;98230.97;5090498;28;20397;-50
2022/04/19 08:18:02;;;;;;;32.50;4.00;;;;;;;32.45;16.59;98227.72;5091797;28;20024;-52
2022/04/19 08:20:28;;;;;;;27.50;3.83;;;;;;;32.27;16.22;98232.00;5091693;28;20405;-51
2022/04/19 08:22:53;;;;;;;45.90;5.20;;;;;;;31.53;17.09;98232.63;5091676;28;20027;-52
2022/04/19 08:25:19;;;;;;;50.13;5.68;;;;;;;31.29;17.26;98233.56;5091653;28;20020;-51
2022/04/19 08:27:46;;;;;;;24.10;4.82;;;;;;;31.61;17.09;98227.03;5091955;28;20478;-51
2022/04/19 08:30:13;;;;;;;10.15;3.08;;;;;;;32.07;16.38;98231.19;5073507;28;20051;-51
2022/04/19 08:32:39;;;;;;;9.82;4.88;;;;;;;32.02;16.50;98233.03;5073462;28;20031;-52
2022/04/19 08:35:05;;;;;;;18.25;3.08;;;;;;;31.23;17.37;98230.31;5091320;28;20024;-51
2022/04/19 08:37:34;;;;;;;31.50;3.92;;;;;;;31.62;16.97;98225.88;5090266;28;20156;-52
2022/04/19 08:40:01;;;;;;;15.23;2.83;;;;;;;31.87;16.74;98222.97;5091610;28;20027;-51
2022/04/19 08:42:29;;;;;;;9.15;2.75;;;;;;;31.98;17.00;98220.50;5091522;28;20024;-52
2022/04/19 08:45:07;;;;;;;15.95;2.67;;;;;;;31.64;17.24;98218.19;5090211;28;20059;-51
2022/04/19 08:47:37;;;;;;;22.70;3.15;;;;;;;31.68;16.90;98217.50;5091751;28;20020;-52
2022/04/19 08:50:05;;;;;;;16.95;3.30;;;;;;;31.91;17.03;98215.69;5090380;28;20487;-51
2022/04/19 08:52:34;;;;;;;7.72;2.75;;;;;;;31.92;16.97;98222.69;5090120;28;20032;-51
2022/04/19 08:57:44;;;;;;;14.95;2.70;;;;;;;32.14;16.76;98206.91;5091453;28;20058;-51
2022/04/19 09:00:11;;;;;;;25.40;3.33;;;;;;;31.67;16.79;98207.78;5090008;28;20074;-52
2022/04/19 09:02:37;;;;;;;44.03;5.22;;;;;;;32.30;16.46;98206.84;5090356;28;20450;-51
2022/04/19 09:05:26;;;;;;;45.60;6.38;;;;;;;33.11;16.32;98201.47;5089987;28;20064;-52
2022/04/19 09:07:57;;;;;;;53.63;5.13;;;;;;;33.59;15.71;98207.28;5091284;28;20042;-51
2022/04/19 09:10:30;;;;;;;16.23;2.75;;;;;;;33.86;15.08;98203.81;5091193;28;20032;-51
2022/04/19 09:13:21;;;;;;;21.15;3.75;;;;;;;34.38;15.08;98202.19;5089923;28;20111;-52
2022/04/19 09:15:48;;;;;;;48.63;4.50;;;;;;;34.09;15.25;98196.38;5084920;28;20115;-52
2022/04/19 09:18:26;;;;;;;12.27;2.53;;;;;;;33.80;15.31;98195.16;5093474;28;20089;-52
2022/04/19 09:20:53;;;;;;;22.48;4.47;;;;;;;33.65;15.41;98188.75;5094744;28;20024;-52
2022/04/19 09:23:20;;;;;;;9.27;2.35;;;;;;;34.03;14.65;98186.94;5076432;28;20020;-52
2022/04/19 09:25:50;;;;;;;9.55;2.28;;;;;;;34.36;14.65;98182.69;5076476;28;20382;-51
2022/04/19 09:28:20;;;;;;;10.77;2.53;;;;;;;34.32;14.63;98179.94;5094552;28;20021;-52
2022/04/19 09:30:48;;;;;;;9.25;2.28;;;;;;;33.94;15.17;98176.31;5094525;28;20114;-52
2022/04/19 09:33:21;;;;;;;20.65;2.97;;;;;;;33.69;15.04;98172.47;5093416;28;20578;-49
2022/04/19 09:35:50;;;;;;;7.38;2.45;;;;;;;33.89;14.87;98170.41;5094173;28;20036;-52
2022/04/19 09:38:17;;;;;;;5.78;1.83;;;;;;;34.06;15.15;98171.78;5093100;28;20028;-51
2022/04/19 09:40:48;;;;;;;35.78;3.40;;;;;;;34.44;14.66;98172.69;5094607;28;20047;-52
2022/04/19 09:43:16;;;;;;;10.38;2.47;;;;;;;34.64;14.50;98168.59;5094295;28;20103;-52
2022/04/19 09:45:58;;;;;;;14.20;2.30;;;;;;;34.72;13.94;98164.81;5093199;28;20038;-50
2022/04/19 09:48:35;;;;;;;14.60;2.33;;;;;;;34.76;14.27;98160.19;5094272;28;20028;-51
2022/04/19 09:51:07;;;;;;;7.50;1.65;;;;;;;34.63;14.18;98158.84;5092847;28;20032;-51
2022/04/19 09:53:44;;;;;;;9.38;1.92;;;;;;;34.31;13.81;98158.50;5094111;28;20082;-52
2022/04/19 09:56:15;;;;;;;6.97;1.73;;;;;;;34.16;14.07;98150.16;5092825;28;20031;-51
2022/04/19 09:58:46;;;;;;;6.70;1.20;;;;;;;34.15;14.07;98145.88;5092738;28;20469;-51
2022/04/19 10:09:35;;;;;;;9.80;1.33;;;;;;;34.91;13.43;98133.06;5094147;28;20081;-52
2022/04/19 10:12:03;;;;;;;8.25;1.30;;;;;;;35.27;13.25;98134.16;5093796;28;20048;-51
2022/04/19 10:14:30;;;;;;;8.18;1.70;;;;;;;35.40;13.21;98126.47;5092592;28;20036;-51
2022/04/19 10:16:59;;;;;;;7.63;1.45;;;;;;;35.66;13.03;98113.75;5093694;28;20023;-51
2022/04/19 10:19:27;;;;;;;6.38;1.40;;;;;;;35.82;12.44;98118.91;5092328;28;20080;-52
2022/04/19 10:21:54;;;;;;;2.72;1.30;;;;;;;35.58;12.60;98126.56;5093774;28;20020;-52
2022/04/19 10:24:21;;;;;;;5.20;1.42;;;;;;;35.78;12.37;98118.91;5093449;28;20028;-51
2022/04/19 10:26:51;;;;;;;6.75;2.22;;;;;;;35.78;12.41;98111.50;5091398;28;20027;-53
2022/04/19 10:29:26;;;;;;;5.10;1.38;;;;;;;35.81;12.43;98115.41;5093443;28;20024;-52
2022/04/19 10:32:11;;;;;;;8.88;1.52;;;;;;;35.94;12.36;98113.09;5092142;28;20036;-51
2022/04/19 10:34:39;;;;;;;7.72;1.60;;;;;;;35.90;12.57;98112.31;5093351;28;20028;-51
2022/04/19 10:37:23;;;;;;;4.22;1.10;;;;;;;35.68;12.61;98105.97;5093026;28;20059;-52
2022/04/19 10:40:10;;;;;;;5.95;1.90;;;;;;;35.29;12.64;98111.94;5092045;28;20490;-51
2022/04/19 10:42:37;;;;;;;5.80;1.50;;;;;;;35.19;12.83;98119.69;5093241;28;20081;-51
2022/04/19 10:45:15;;;;;;;3.58;1.35;;;;;;;35.10;12.79;98115.69;5093056;28;20050;-52
2022/04/19 10:47:58;;;;;;;7.10;1.25;;;;;;;35.24;12.14;98106.88;5092950;28;20562;-51
2022/04/19 10:50:33;;;;;;;7.32;1.83;;;;;;;35.04;12.87;98112.53;5093027;28;20073;-52
2022/04/19 10:53:03;;;;;;;5.10;1.67;;;;;;;34.98;13.23;98109.34;5092951;28;20520;-52
2022/04/19 10:55:34;;;;;;;4.97;1.40;;;;;;;35.18;13.17;98112.66;5091644;28;20048;-51
2022/04/19 10:58:20;;;;;;;7.45;2.95;;;;;;;35.30;12.79;98102.63;5092807;28;20056;-51
2022/04/19 11:00:48;;;;;;;7.05;2.28;;;;;;;35.07;12.35;98105.53;5092886;28;20543;-51
2022/04/19 11:03:19;;;;;;;4.20;1.20;;;;;;;35.27;12.27;98097.91;5093095;28;20036;-52
2022/04/19 11:05:56;;;;;;;8.98;1.58;;;;;;;35.85;11.77;98094.34;5092680;28;20057;-52
2022/04/19 11:08:25;;;;;;;6.88;2.10;;;;;;;36.23;11.45;98089.44;5092745;28;20031;-51
2022/04/19 11:11:03;;;;;;;8.02;2.65;;;;;;;36.26;11.51;98085.16;5091321;28;20108;-51
2022/04/19 11:13:35;;;;;;;5.25;1.65;;;;;;;35.95;11.32;98088.16;5092565;28;20020;-52
2022/04/19 11:16:04;;;;;;;8.75;1.55;;;;;;;35.57;11.71;98092.25;5092528;28;20027;-51
2022/04/19 11:18:32;;;;;;;18.48;2.00;;;;;;;35.74;12.13;98096.28;5092483;28;20086;-51
2022/04/19 11:20:59;;;;;;;7.68;1.85;;;;;;;35.83;11.56;98085.75;5092442;28;20486;-51
2022/04/19 11:23:29;;;;;;;9.23;2.38;;;;;;;35.97;11.03;98082.31;5092747;28;20080;-51
2022/04/19 11:25:57;;;;;;;17.75;3.42;;;;;;;35.56;10.52;98077.81;5091251;28;20024;-50
2022/04/19 11:28:31;;;;;;;11.68;2.03;;;;;;;35.60;11.11;98075.13;5091008;28;20023;-51
2022/04/19 11:30:57;;;;;;;10.35;1.85;;;;;;;35.44;11.57;98080.06;5092301;28;20015;-50
2022/04/19 11:33:28;;;;;;;10.07;1.55;;;;;;;35.47;11.85;98071.13;5092333;28;20107;-51
2022/04/19 11:36:06;;;;;;;18.50;3.13;;;;;;;35.32;11.58;98075.75;5092034;28;20070;-51
2022/04/19 11:38:35;;;;;;;7.78;2.58;;;;;;;35.41;11.61;98071.47;5091351;28;20527;-51
2022/04/19 11:46:45;;;;;;;14.70;3.40;;;;;;;35.13;11.14;98066.59;5092061;28;20501;-52
2022/04/19 11:49:35;;;;;;;25.10;4.00;;;;;;;35.45;11.48;98054.34;5092152;28;20497;-51
2022/04/19 11:52:11;;;;;;;23.65;2.72;;;;;;;35.29;12.06;98055.44;5092029;28;20024;-52
2022/04/19 11:54:37;;;;;;;9.25;1.50;;;;;;;34.89;11.58;98059.81;5091985;28;20498;-51
2022/04/19 11:57:08;;;;;;;10.77;1.30;;;;;;;34.48;11.31;98057.09;5090598;28;20039;-52
2022/04/19 11:59:36;;;;;;;21.27;3.45;;;;;;;34.41;11.78;98049.66;5090775;28;20514;-51
2022/04/19 12:02:04;;;;;;;9.50;2.60;;;;;;;34.31;13.04;98049.53;5091911;28;20036;-52
2022/04/19 12:04:30;;;;;;;10.18;1.42;;;;;;;34.11;11.84;98051.63;5091920;28;20452;-51
2022/04/19 12:07:01;;;;;;;6.78;1.40;;;;;;;33.14;11.74;98051.19;5091782;28;20028;-51
2022/04/19 12:09:29;;;;;;;18.63;2.05;;;;;;;31.98;11.78;98053.00;5091920;28;20111;-51
2022/04/19 12:11:56;;;;;;;11.07;1.45;;;;;;;31.28;12.50;98055.75;5090452;28;20559;-50